»·PEaware :: N143VT KGCN-KRIL

N143VT :: KGCN-KRIL

FLIGHT INFORMATION

Flight Status: Arrived
Operator: Privately registered:
United States
More flights under this callsign
Pilot: Anonymous 16492 (16492)
Aircraft: BOMBARDIER BD-100 CHALLENGER 300
(CL30)
More flights by this aircraft type
Origin: KGCN Grand Canyon Natl Park
United States
Destination: KRIL Garfield Co Regl
United States
More flights between these airports :: More routes between these airports
Route: +TBC J128 HBU V421 DBL
File this flight plan on PilotEdge
Remarks:
Altitude:
(Current/Filed)
31,000ft
Speed:
(Current/Filed)
440kts
Departed: 30-Aug-18 05:41 PM
Arrived: 30-Aug-18 06:46 PM
Distance/Time
Traveled:
300nm/1:04
Distance/Time
To Go:
Arrived

Flight Plot

Page will automatically refresh every two minutes.

Flight plan parsing failed; only flown route is shown


Map Options




Map Legend


Flown Route
Filed Route
Departure Airport
Arrival Airport
Navaid (VOR, NDB)
Fix

Horizontal Profiles

Position Reports

Time Latitude Longitude Heading Altitude Ground
Speed
30-Aug-18 17:20 35.954212 -112.142486 41 6611ft 0kts
30-Aug-18 17:21 35.954212 -112.142486 41 6611ft 0kts
30-Aug-18 17:22 35.954212 -112.142486 41 6611ft 0kts
30-Aug-18 17:23 35.954212 -112.142486 41 6611ft 0kts
30-Aug-18 17:24 35.954212 -112.142486 41 6611ft 0kts
30-Aug-18 17:25 35.954212 -112.142486 41 6611ft 0kts
30-Aug-18 17:26 35.954212 -112.142486 41 6611ft 0kts
30-Aug-18 17:27 35.954212 -112.142486 41 6611ft 0kts
30-Aug-18 17:28 35.954212 -112.142486 41 6611ft 0kts
30-Aug-18 17:29 35.954212 -112.142486 41 6611ft 0kts
30-Aug-18 17:30 35.954212 -112.142486 41 6611ft 0kts
30-Aug-18 17:31 35.954212 -112.142486 41 6611ft 0kts
30-Aug-18 17:32 35.954212 -112.142486 41 6611ft 0kts
30-Aug-18 17:33 35.954212 -112.142486 41 6611ft 0kts
30-Aug-18 17:34 35.954212 -112.142486 41 6611ft 0kts
30-Aug-18 17:35 35.954212 -112.142486 41 6611ft 0kts
30-Aug-18 17:36 35.954212 -112.142486 41 6611ft 0kts
30-Aug-18 17:37 35.954212 -112.142486 41 6611ft 0kts
30-Aug-18 17:38 35.956030 -112.141237 40 6610ft 26kts
30-Aug-18 17:39 35.960166 -112.136874 41 6610ft 14kts
30-Aug-18 17:40 35.961007 -112.136284 338 6611ft 0kts
30-Aug-18 17:41 35.961258 -112.137501 220 6610ft 0kts
30-Aug-18 17:42 35.942150 -112.157644 222 7184ft 173kts
30-Aug-18 17:43 35.931515 -112.214858 285 10025ft 243kts
30-Aug-18 17:44 35.925099 -112.298824 253 10020ft 259kts
30-Aug-18 17:45 35.901212 -112.383882 225 10013ft 272kts
30-Aug-18 17:46 35.843632 -112.349921 94 13447ft 309kts
30-Aug-18 17:47 35.867639 -112.246000 72 16436ft 329kts
30-Aug-18 17:48 35.896327 -112.136167 71 19206ft 345kts
30-Aug-18 17:49 35.926509 -112.021204 71 21678ft 360kts
30-Aug-18 17:50 35.959278 -111.896259 71 22333ft 422kts
30-Aug-18 17:51 35.995830 -111.756144 70 24247ft 435kts
30-Aug-18 17:52 36.033126 -111.612460 70 25971ft 447kts
30-Aug-18 17:53 36.071231 -111.464862 70 27496ft 458kts
30-Aug-18 17:54 36.109919 -111.314138 70 28830ft 468kts
30-Aug-18 17:55 36.176779 -111.177494 51 30018ft 470kts
30-Aug-18 17:56 36.252337 -111.045952 51 31057ft 478kts
30-Aug-18 17:57 36.331876 -110.908799 51 31065ft 496kts
30-Aug-18 17:58 36.411935 -110.770417 51 31065ft 495kts
30-Aug-18 17:59 36.492014 -110.631543 51 31065ft 494kts
30-Aug-18 18:00 36.571382 -110.493342 51 31066ft 493kts
30-Aug-18 18:01 36.650801 -110.354480 51 31087ft 493kts
30-Aug-18 18:02 36.728781 -110.217592 52 31186ft 490kts
30-Aug-18 18:03 36.807145 -110.079469 52 31246ft 489kts
30-Aug-18 18:04 36.885638 -109.940550 52 31247ft 489kts
30-Aug-18 18:05 36.963665 -109.801878 52 31247ft 490kts
30-Aug-18 18:06 37.041811 -109.662409 52 31248ft 492kts
30-Aug-18 18:07 37.120005 -109.522312 52 31249ft 496kts
30-Aug-18 18:08 37.199134 -109.379920 52 31254ft 500kts
30-Aug-18 18:09 37.277930 -109.237519 52 31245ft 503kts
30-Aug-18 18:10 37.357406 -109.093310 53 31226ft 504kts
30-Aug-18 18:11 37.435990 -108.950083 53 31194ft 505kts
30-Aug-18 18:12 37.514652 -108.806042 53 31191ft 505kts
30-Aug-18 18:13 37.593561 -108.660946 53 31193ft 505kts
30-Aug-18 18:14 37.672220 -108.515692 53 31196ft 506kts
30-Aug-18 18:15 37.750823 -108.369890 53 31292ft 504kts
30-Aug-18 18:16 37.826707 -108.228531 54 31434ft 502kts
30-Aug-18 18:17 37.903690 -108.084509 54 31448ft 503kts
30-Aug-18 18:18 37.980883 -107.939449 54 31448ft 505kts
30-Aug-18 18:19 38.058494 -107.792950 54 31449ft 506kts
30-Aug-18 18:20 38.135601 -107.646762 54 31368ft 508kts
30-Aug-18 18:21 38.213679 -107.498067 54 31228ft 510kts
30-Aug-18 18:22 38.291424 -107.349322 54 31243ft 509kts
30-Aug-18 18:23 38.368192 -107.201780 54 31292ft 507kts
30-Aug-18 18:24 38.455686 -107.068771 21 31227ft 471kts
30-Aug-18 18:25 38.577474 -107.027398 5 29945ft 450kts
30-Aug-18 18:26 38.699129 -107.005011 3 28546ft 439kts
30-Aug-18 18:27 38.818639 -106.986582 2 27134ft 429kts
30-Aug-18 18:28 38.934668 -106.969356 2 24576ft 416kts
30-Aug-18 18:29 39.046957 -106.952785 1 21429ft 401kts
30-Aug-18 18:30 39.153986 -106.937026 2 19076ft 385kts
30-Aug-18 18:31 39.257353 -106.921737 2 16049ft 361kts
30-Aug-18 18:32 39.344612 -106.908681 1 15994ft 287kts
30-Aug-18 18:33 39.419720 -106.901907 331 15962ft 255kts
30-Aug-18 18:34 39.458315 -106.970536 294 15209ft 235kts
30-Aug-18 18:35 39.488617 -107.046221 291 13990ft 235kts
30-Aug-18 18:36 39.516138 -107.121031 290 13929ft 228kts
30-Aug-18 18:37 39.533868 -107.197226 267 13589ft 218kts
30-Aug-18 18:38 39.534001 -107.272540 266 12663ft 198kts
30-Aug-18 18:39 39.533179 -107.341297 266 11204ft 191kts
30-Aug-18 18:40 39.531869 -107.401048 265 10648ft 156kts
30-Aug-18 18:41 39.530415 -107.451944 265 10248ft 125kts
30-Aug-18 18:42 39.529245 -107.498900 266 9773ft 151kts
30-Aug-18 18:43 39.528329 -107.553449 267 8840ft 159kts
30-Aug-18 18:44 39.528537 -107.610906 268 7277ft 147kts
30-Aug-18 18:45 39.528004 -107.660242 268 6598ft 137kts
30-Aug-18 18:46 39.527091 -107.708533 266 5698ft 128kts
30-Aug-18 18:47 39.526603 -107.728367 268 5549ft 37kts
30-Aug-18 18:48 39.525424 -107.731891 88 5549ft 2kts
30-Aug-18 18:49 39.525425 -107.731824 88 5549ft 2kts
30-Aug-18 18:50 39.525559 -107.725410 91 5549ft 8kts
30-Aug-18 18:51 39.524880 -107.724899 180 5549ft 1kts
30-Aug-18 18:52 39.524459 -107.723566 7 5548ft 0kts
30-Aug-18 18:54 39.524463 -107.723565 7 5548ft 0kts
30-Aug-18 18:55 39.524463 -107.723565 7 5548ft 0kts
30-Aug-18 18:56 39.524463 -107.723565 7 5548ft 0kts

Navigation Log

Ident Type
Flight plan parsing failed, navigation log unavailable